Time;durP1;ratioP1;P1;durP2;ratioP2;P2;SDS_P1;SDS_P2;PMS_P1;PMS_P2;Temp;Humidity;BMP_temperature;BMP_pressure;BME280_temperature;BME280_humidity;BME280_pressure;Samples;Min_cycle;Max_cycle;Signal;HPM_P1;HPM_P2
2022/06/18 00:02:23;;;;;;;5.93;4.33;;;;;;;18.77;69.76;100572.81;5083736;28;20475;-70
2022/06/18 00:04:50;;;;;;;4.50;4.10;;;;;;;18.67;70.52;100574.13;5080485;28;20511;-71
2022/06/18 00:07:18;;;;;;;6.67;4.47;;;;;;;18.63;70.49;100571.78;5093847;28;20470;-68
2022/06/18 00:09:53;;;;;;;5.40;4.03;;;;;;;18.67;70.75;100571.44;5088354;28;20450;-68
2022/06/18 00:15:12;;;;;;;4.67;4.27;;;;;;;18.51;71.66;100557.03;5079585;28;20434;-68
2022/06/18 00:17:39;;;;;;;5.97;5.10;;;;;;;18.55;71.02;100552.91;5081509;28;20502;-69
2022/06/18 00:20:06;;;;;;;5.93;5.43;;;;;;;18.46;71.13;100555.91;5080819;28;20448;-68
2022/06/18 00:22:33;;;;;;;5.87;5.13;;;;;;;18.61;70.26;100557.59;5060913;28;20527;-69
2022/06/18 00:25:00;;;;;;;6.43;5.00;;;;;;;18.62;70.77;100556.56;5078309;28;20545;-68
2022/06/18 00:27:28;;;;;;;6.13;5.60;;;;;;;18.60;70.82;100547.78;5097308;28;20506;-68
2022/06/18 00:29:55;;;;;;;6.37;5.77;;;;;;;18.68;70.55;100544.16;5081160;28;20468;-68
2022/06/18 00:32:21;;;;;;;5.57;5.07;;;;;;;18.35;72.00;100547.22;5080477;28;20546;-67
2022/06/18 00:34:48;;;;;;;5.40;4.80;;;;;;;18.53;70.50;100556.84;5084617;28;20574;-68
2022/06/18 00:37:17;;;;;;;5.20;4.70;;;;;;;18.74;69.21;100554.22;5098014;28;20511;-66
2022/06/18 00:39:44;;;;;;;4.37;3.97;;;;;;;18.86;68.59;100551.94;5098731;28;20519;-67
2022/06/18 00:42:20;;;;;;;6.70;5.07;;;;;;;18.99;66.92;100545.84;5082900;28;20515;-68
2022/06/18 00:44:53;;;;;;;3.97;3.53;;;;;;;19.24;63.37;100546.38;5093087;28;20583;-68
2022/06/18 00:47:24;;;;;;;4.00;3.70;;;;;;;19.17;63.17;100540.88;5084681;28;20564;-67
2022/06/18 00:49:55;;;;;;;4.63;4.20;;;;;;;18.93;66.58;100538.47;5106463;28;20512;-69
2022/06/18 00:52:24;;;;;;;5.30;4.80;;;;;;;18.88;67.79;100538.19;5119709;27;20501;-68
2022/06/18 00:54:55;;;;;;;4.60;4.20;;;;;;;19.13;64.43;100541.44;5120750;28;20453;-69
2022/06/18 00:57:28;;;;;;;5.23;3.43;;;;;;;19.37;60.06;100537.53;5097315;27;20478;-68
2022/06/18 01:00:04;;;;;;;4.70;4.07;;;;;;;19.45;61.89;100534.72;5086934;28;20467;-68
2022/06/18 01:02:33;;;;;;;3.07;2.70;;;;;;;19.46;58.58;100539.13;5083642;28;20839;-68
2022/06/18 01:05:00;;;;;;;4.43;4.10;;;;;;;19.61;60.75;100533.63;5103000;28;20525;-68
2022/06/18 01:07:29;;;;;;;3.67;3.37;;;;;;;19.46;61.11;100540.97;5088830;27;20507;-68
2022/06/18 01:09:55;;;;;;;5.60;4.03;;;;;;;19.42;61.66;100532.38;5086959;28;20440;-68
2022/06/18 01:12:22;;;;;;;4.27;3.60;;;;;;;19.38;61.72;100529.22;5102676;28;20506;-68
2022/06/18 01:14:53;;;;;;;3.07;2.77;;;;;;;19.56;56.54;100530.66;5102649;28;20489;-68
2022/06/18 01:17:21;;;;;;;5.50;3.70;;;;;;;19.56;60.42;100536.94;5100346;28;20512;-68
2022/06/18 01:19:50;;;;;;;4.30;3.90;;;;;;;19.33;61.53;100525.41;5083342;28;20483;-68
2022/06/18 01:22:28;;;;;;;4.23;3.57;;;;;;;19.24;62.43;100521.97;5085118;28;20523;-68
2022/06/18 01:24:57;;;;;;;4.23;3.83;;;;;;;19.43;59.78;100522.41;5102157;28;20495;-68
2022/06/18 01:27:24;;;;;;;3.00;2.70;;;;;;;19.39;58.23;100524.66;5102564;28;20478;-68
2022/06/18 01:29:51;;;;;;;5.00;3.23;;;;;;;19.42;60.35;100520.72;5088784;28;20483;-69
2022/06/18 01:32:19;;;;;;;3.90;2.70;;;;;;;19.45;60.02;100513.03;5084097;28;20467;-67
2022/06/18 01:34:46;;;;;;;3.60;2.80;;;;;;;19.61;56.91;100502.97;5084003;28;20455;-69
2022/06/18 01:37:13;;;;;;;6.80;3.47;;;;;;;19.66;59.01;100504.06;5087455;28;20496;-69
2022/06/18 01:39:43;;;;;;;3.27;2.87;;;;;;;19.76;57.65;100503.78;5103846;28;20458;-68
2022/06/18 01:42:14;;;;;;;3.27;2.93;;;;;;;19.83;56.27;100501.13;5098874;28;20486;-68
2022/06/18 01:44:46;;;;;;;3.03;2.70;;;;;;;19.82;54.70;100497.56;5083100;28;20511;-68
2022/06/18 01:47:15;;;;;;;3.73;2.47;;;;;;;19.86;53.67;100498.84;5088549;28;21011;-68
2022/06/18 01:49:45;;;;;;;2.50;2.00;;;;;;;19.82;56.34;100499.44;5092615;28;20443;-68
2022/06/18 01:52:12;;;;;;;2.50;2.30;;;;;;;20.18;52.05;100485.72;5087943;28;20490;-68
2022/06/18 01:54:48;;;;;;;2.63;2.33;;;;;;;20.30;53.02;100484.16;5098518;28;20953;-67
2022/06/18 01:57:20;;;;;;;2.87;2.50;;;;;;;20.10;53.40;100475.88;5100349;28;20502;-68
2022/06/18 01:59:50;;;;;;;2.53;2.33;;;;;;;20.10;53.96;100483.16;5101424;28;20467;-68
2022/06/18 02:02:17;;;;;;;2.60;2.40;;;;;;;20.12;52.94;100471.09;5083043;28;20503;-67
2022/06/18 02:04:44;;;;;;;3.13;2.83;;;;;;;20.31;53.37;100474.97;5082885;28;20484;-67
2022/06/18 02:07:16;;;;;;;2.63;2.30;;;;;;;20.22;53.31;100472.59;5097317;28;20487;-67
2022/06/18 02:09:45;;;;;;;2.70;2.50;;;;;;;20.21;51.99;100466.34;5099323;28;20475;-66
2022/06/18 02:12:14;;;;;;;3.07;2.17;;;;;;;20.30;52.68;100467.84;5096975;28;20998;-67
2022/06/18 02:14:45;;;;;;;6.23;2.60;;;;;;;20.25;53.45;100459.47;5082923;28;20897;-67
2022/06/18 02:17:17;;;;;;;2.43;1.90;;;;;;;20.40;51.28;100464.78;5098594;28;20497;-68
2022/06/18 02:19:47;;;;;;;4.17;2.93;;;;;;;20.63;51.70;100455.53;5089566;28;20482;-68
2022/06/18 02:22:14;;;;;;;3.00;2.47;;;;;;;20.63;51.64;100452.81;5081925;28;20507;-68
2022/06/18 02:24:41;;;;;;;3.00;2.20;;;;;;;20.59;50.59;100452.38;5088149;28;20518;-68
2022/06/18 02:27:12;;;;;;;4.50;2.90;;;;;;;20.61;51.78;100444.84;5094998;28;20566;-68
2022/06/18 02:29:38;;;;;;;3.97;2.20;;;;;;;20.75;49.97;100447.66;5083901;28;20478;-69
2022/06/18 02:32:11;;;;;;;4.33;2.57;;;;;;;20.77;49.84;100440.13;5095853;28;20488;-69
2022/06/18 02:34:38;;;;;;;2.73;2.50;;;;;;;20.91;49.27;100444.56;5090338;28;20444;-69
2022/06/18 02:37:13;;;;;;;3.30;2.67;;;;;;;20.92;49.88;100438.09;5082075;28;20478;-69
2022/06/18 02:39:41;;;;;;;3.17;2.50;;;;;;;20.93;49.94;100438.94;5083306;28;20478;-66
2022/06/18 02:42:12;;;;;;;7.53;2.53;;;;;;;20.77;50.80;100437.41;5081018;28;20511;-68
2022/06/18 02:44:41;;;;;;;2.73;2.30;;;;;;;20.70;50.43;100431.97;5098833;28;20501;-67
2022/06/18 02:47:10;;;;;;;4.47;2.80;;;;;;;20.66;51.11;100428.81;5081974;28;20514;-68
2022/06/18 02:49:40;;;;;;;2.90;2.40;;;;;;;20.82;50.24;100434.94;5087229;28;20512;-68
2022/06/18 02:52:07;;;;;;;5.63;2.80;;;;;;;20.83;49.85;100433.88;5089914;28;20514;-67
2022/06/18 02:54:34;;;;;;;4.53;2.20;;;;;;;20.85;49.95;100429.94;5082236;28;20471;-68
2022/06/18 02:57:04;;;;;;;2.50;2.30;;;;;;;21.18;48.74;100431.03;5084855;28;20547;-68
2022/06/18 02:59:31;;;;;;;3.00;2.70;;;;;;;21.26;48.87;100436.28;5082172;28;20436;-68
2022/06/18 03:01:58;;;;;;;4.70;2.43;;;;;;;21.18;48.91;100429.19;5097157;28;20570;-67
2022/06/18 03:04:27;;;;;;;3.67;2.47;;;;;;;21.14;48.90;100429.78;5095928;28;20482;-67
2022/06/18 03:06:54;;;;;;;4.37;2.50;;;;;;;21.28;48.32;100436.91;5101813;28;20473;-66
2022/06/18 03:09:21;;;;;;;4.20;2.20;;;;;;;21.26;48.62;100439.00;5100651;28;20447;-66
2022/06/18 03:14:32;;;;;;;4.40;2.60;;;;;;;21.61;47.02;100449.75;5087123;28;20446;-67
2022/06/18 03:16:59;;;;;;;2.93;2.53;;;;;;;21.64;47.69;100441.19;5097296;27;20479;-67
2022/06/18 03:19:33;;;;;;;3.20;2.87;;;;;;;21.67;46.89;100435.34;5092729;28;20440;-66
2022/06/18 03:22:05;;;;;;;3.13;2.50;;;;;;;21.91;46.61;100436.59;5084143;28;20511;-65
2022/06/18 03:24:32;;;;;;;2.57;2.20;;;;;;;22.10;46.31;100436.75;5085746;28;20443;-67
2022/06/18 03:26:58;;;;;;;3.77;2.67;;;;;;;22.23;46.06;100438.63;5099242;27;20509;-67
2022/06/18 03:29:25;;;;;;;3.60;2.50;;;;;;;22.44;45.23;100441.09;5084408;28;20440;-69
2022/06/18 03:31:51;;;;;;;2.80;2.23;;;;;;;22.56;44.87;100446.72;5086406;28;20479;-69
2022/06/18 03:34:18;;;;;;;2.73;2.43;;;;;;;22.64;45.17;100432.06;5090197;28;20444;-69
2022/06/18 03:36:46;;;;;;;2.60;2.40;;;;;;;22.67;44.90;100451.53;5094972;28;20494;-68
2022/06/18 03:39:13;;;;;;;4.53;2.00;;;;;;;23.04;44.38;100445.50;5098420;28;20477;-68
2022/06/18 03:41:40;;;;;;;2.10;1.90;;;;;;;23.07;44.29;100445.06;5078981;28;20503;-69
2022/06/18 03:44:06;;;;;;;2.40;2.17;;;;;;;23.18;44.03;100449.84;5081420;28;20455;-68
2022/06/18 03:46:36;;;;;;;3.77;2.57;;;;;;;23.47;43.30;100448.41;5083264;28;20504;-68
2022/06/18 03:49:04;;;;;;;3.17;1.97;;;;;;;23.76;42.56;100453.41;5100642;28;20439;-67
2022/06/18 03:51:31;;;;;;;4.40;2.50;;;;;;;23.80;42.39;100450.03;5090137;28;20479;-69
2022/06/18 03:53:59;;;;;;;4.27;2.20;;;;;;;24.02;42.26;100453.19;5081732;28;20538;-67
2022/06/18 03:56:29;;;;;;;4.17;2.10;;;;;;;24.17;42.12;100452.03;5079946;28;20475;-68
2022/06/18 03:58:56;;;;;;;4.90;2.37;;;;;;;24.48;41.46;100445.59;5085231;28;20446;-68
2022/06/18 04:01:25;;;;;;;3.60;2.93;;;;;;;24.68;40.91;100439.91;5098809;28;20503;-69
2022/06/18 04:03:52;;;;;;;2.33;1.93;;;;;;;25.25;40.13;100445.06;5092903;28;20965;-66
2022/06/18 04:06:19;;;;;;;4.97;2.30;;;;;;;25.47;39.63;100444.56;5091261;27;20507;-67
2022/06/18 04:08:46;;;;;;;4.40;2.43;;;;;;;25.43;39.64;100451.53;5099719;28;20436;-68
2022/06/18 04:11:14;;;;;;;2.90;2.30;;;;;;;24.98;40.61;100450.03;5081320;28;20482;-67
2022/06/18 04:13:41;;;;;;;2.30;2.10;;;;;;;25.79;39.21;100457.94;5092073;28;20490;-67
2022/06/18 04:16:09;;;;;;;3.60;2.30;;;;;;;25.86;39.25;100459.47;5098340;27;20554;-68
2022/06/18 04:18:36;;;;;;;3.63;2.50;;;;;;;25.98;38.98;100455.97;5099604;28;20983;-68
2022/06/18 04:21:04;;;;;;;4.07;2.33;;;;;;;25.44;39.90;100436.81;5081741;28;20535;-67
2022/06/18 04:23:31;;;;;;;4.10;2.50;;;;;;;25.56;40.15;100454.91;5081738;28;20498;-67
2022/06/18 04:25:58;;;;;;;4.13;2.33;;;;;;;25.96;39.64;100450.72;5083564;28;20522;-69
2022/06/18 04:28:27;;;;;;;2.67;2.47;;;;;;;26.12;39.08;100446.41;5097762;28;20469;-69
2022/06/18 04:30:53;;;;;;;3.67;2.63;;;;;;;26.46;38.30;100444.72;5093943;28;20956;-68
2022/06/18 04:33:20;;;;;;;4.53;2.40;;;;;;;26.51;38.21;100446.75;5098247;28;20471;-69
2022/06/18 04:35:50;;;;;;;4.43;2.20;;;;;;;26.02;39.45;100440.69;5079785;28;20491;-68
2022/06/18 04:38:17;;;;;;;2.93;2.57;;;;;;;26.47;38.99;100442.81;5081088;28;20951;-68
2022/06/18 04:40:43;;;;;;;3.10;2.70;;;;;;;26.22;39.23;100448.56;5083930;28;20489;-68
2022/06/18 04:43:10;;;;;;;3.57;2.20;;;;;;;26.70;38.18;100452.94;5097383;28;20490;-69
2022/06/18 04:45:39;;;;;;;3.03;2.50;;;;;;;26.50;38.65;100445.06;5092493;28;20490;-69
2022/06/18 04:48:06;;;;;;;5.60;2.57;;;;;;;26.86;38.23;100452.16;5093696;28;20913;-67
2022/06/18 04:50:36;;;;;;;6.13;2.73;;;;;;;26.93;38.20;100448.44;5106377;27;20982;-68
2022/06/18 04:53:02;;;;;;;6.87;2.63;;;;;;;26.57;38.87;100445.75;5120996;28;20471;-68
2022/06/18 04:55:29;;;;;;;5.17;2.53;;;;;;;26.96;37.90;100451.53;5105911;28;20520;-68
2022/06/18 04:57:56;;;;;;;2.77;2.30;;;;;;;27.89;36.58;100447.69;5089531;28;20486;-65
2022/06/18 05:00:23;;;;;;;3.87;2.57;;;;;;;27.77;36.58;100456.84;5081486;28;20462;-67
2022/06/18 05:02:51;;;;;;;3.27;2.07;;;;;;;27.78;36.77;100465.94;5079801;28;20454;-68
2022/06/18 05:05:19;;;;;;;5.53;2.33;;;;;;;27.85;36.66;100461.09;5080598;28;20582;-69
2022/06/18 05:07:46;;;;;;;3.57;2.80;;;;;;;28.57;35.35;100466.84;5094160;28;20439;-69
2022/06/18 05:10:13;;;;;;;3.23;2.33;;;;;;;28.87;34.53;100460.88;5120152;27;20482;-69
2022/06/18 05:12:39;;;;;;;2.87;2.30;;;;;;;29.59;33.67;100465.25;5098194;28;20493;-70
2022/06/18 05:15:08;;;;;;;3.47;2.17;;;;;;;28.96;34.69;100461.25;5109047;28;20450;-65
2022/06/18 05:17:37;;;;;;;2.97;2.30;;;;;;;29.18;33.93;100453.00;5095326;28;20485;-70
2022/06/18 05:20:07;;;;;;;2.70;2.30;;;;;;;28.77;34.70;100456.13;5100102;28;20985;-67
2022/06/18 05:22:33;;;;;;;4.27;2.33;;;;;;;28.92;34.67;100450.78;5080273;28;20503;-69
2022/06/18 05:25:00;;;;;;;3.10;2.30;;;;;;;28.99;34.59;100455.25;5079207;28;20506;-70
2022/06/18 05:27:32;;;;;;;5.97;2.43;;;;;;;28.63;35.39;100449.34;5079528;28;20476;-70
2022/06/18 05:29:59;;;;;;;4.97;2.93;;;;;;;28.67;35.69;100450.50;5082131;28;20540;-70
2022/06/18 05:32:26;;;;;;;4.23;2.60;;;;;;;28.28;36.04;100455.97;5099654;28;20490;-70
2022/06/18 05:34:53;;;;;;;8.93;3.10;;;;;;;27.89;36.66;100445.75;5084059;28;20478;-69
2022/06/18 05:37:23;;;;;;;6.20;2.83;;;;;;;27.78;37.21;100446.69;5078738;28;20471;-69
2022/06/18 05:39:50;;;;;;;2.77;2.50;;;;;;;28.93;35.58;100446.13;5089252;28;20442;-69
2022/06/18 05:42:17;;;;;;;5.37;2.67;;;;;;;29.36;34.50;100446.31;5097077;28;20482;-69
2022/06/18 05:44:44;;;;;;;4.03;2.60;;;;;;;29.43;34.65;100441.44;5092307;28;20479;-70
2022/06/18 05:47:12;;;;;;;5.20;2.30;;;;;;;29.02;35.68;100436.28;5093782;28;20528;-71
2022/06/18 05:49:39;;;;;;;5.50;2.73;;;;;;;28.88;36.02;100444.13;5082011;28;20478;-69
2022/06/18 05:52:06;;;;;;;4.90;3.00;;;;;;;29.92;33.65;100445.97;5083442;28;20927;-64
2022/06/18 05:54:34;;;;;;;3.23;2.47;;;;;;;29.71;33.83;100440.28;5083297;28;20973;-67
2022/06/18 05:57:01;;;;;;;4.60;2.80;;;;;;;30.15;33.83;100433.72;5082462;28;20480;-70
2022/06/18 05:59:28;;;;;;;6.17;3.23;;;;;;;29.63;34.11;100435.25;5084471;28;20448;-67
2022/06/18 06:01:56;;;;;;;5.90;2.67;;;;;;;30.50;32.76;100443.31;5083083;28;20555;-70
2022/06/18 06:04:22;;;;;;;3.60;2.50;;;;;;;30.04;33.96;100430.88;5082932;28;20462;-69
2022/06/18 06:06:49;;;;;;;4.73;2.47;;;;;;;29.90;34.28;100442.66;5098530;28;20525;-69
2022/06/18 06:11:28;;;;;;;5.07;2.40;;;;;;;29.94;33.78;100436.34;5103021;28;20427;-70
2022/06/18 06:12:04;;;;;;;6.90;2.73;;;;;;;30.66;32.98;100434.00;5101480;28;20471;-70
2022/06/18 06:14:31;;;;;;;3.83;3.00;;;;;;;29.56;34.76;100431.88;5096511;28;20467;-70
2022/06/18 06:16:58;;;;;;;6.07;3.07;;;;;;;28.89;35.81;100432.03;5083038;28;20472;-70
2022/06/18 06:19:25;;;;;;;4.80;2.97;;;;;;;28.96;35.79;100431.00;5083589;28;20835;-69
2022/06/18 06:21:51;;;;;;;3.50;3.00;;;;;;;30.46;33.38;100433.91;5081854;28;20841;-69
2022/06/18 06:24:18;;;;;;;4.70;3.30;;;;;;;30.04;34.73;100430.88;5094223;28;20500;-68
2022/06/18 06:26:45;;;;;;;4.83;2.97;;;;;;;31.09;33.00;100439.38;5101531;28;20478;-71
2022/06/18 06:29:13;;;;;;;4.10;2.97;;;;;;;30.51;33.05;100434.75;5094862;28;20435;-68
2022/06/18 06:31:40;;;;;;;4.97;3.30;;;;;;;30.64;32.76;100427.09;5093285;28;21141;-68
2022/06/18 06:34:06;;;;;;;6.80;3.27;;;;;;;30.47;33.32;100427.28;5100758;28;20485;-70
2022/06/18 06:36:33;;;;;;;5.93;3.40;;;;;;;31.25;32.34;100426.44;5101442;28;20474;-70
2022/06/18 06:38:59;;;;;;;4.80;3.40;;;;;;;31.22;32.11;100436.09;5103054;28;20442;-70
2022/06/18 06:41:28;;;;;;;3.77;2.80;;;;;;;31.01;32.77;100428.91;5100560;28;21150;-69
2022/06/18 06:43:54;;;;;;;5.50;2.80;;;;;;;30.03;34.51;100429.25;5090755;28;20455;-68
2022/06/18 06:46:23;;;;;;;4.70;3.13;;;;;;;31.02;32.87;100444.34;5090272;28;20519;-69
2022/06/18 06:48:50;;;;;;;6.27;3.23;;;;;;;31.32;32.47;100429.78;5087340;28;20478;-70
2022/06/18 06:51:18;;;;;;;7.47;3.20;;;;;;;32.57;30.55;100441.25;5097969;28;20487;-69
2022/06/18 06:53:45;;;;;;;4.03;3.23;;;;;;;32.45;30.85;100436.03;5091153;28;20452;-69
2022/06/18 06:58:58;;;;;;;5.80;3.03;;;;;;;31.85;32.06;100440.56;5101884;28;20445;-70
2022/06/18 07:01:26;;;;;;;8.63;3.77;;;;;;;32.58;30.79;100442.06;5098429;28;20474;-70
2022/06/18 07:03:53;;;;;;;5.93;3.13;;;;;;;31.69;32.24;100440.56;5088048;28;20459;-69
2022/06/18 07:06:20;;;;;;;6.60;3.27;;;;;;;32.62;31.16;100441.25;5080978;28;20506;-70
2022/06/18 07:08:47;;;;;;;4.80;3.40;;;;;;;31.98;31.84;100433.63;5068083;28;20437;-70
2022/06/18 07:11:15;;;;;;;5.77;3.57;;;;;;;31.41;32.91;100433.63;5070280;28;20504;-69
2022/06/18 07:13:42;;;;;;;5.07;3.70;;;;;;;30.91;33.72;100429.66;5095429;28;20485;-70
2022/06/18 07:16:10;;;;;;;5.63;3.30;;;;;;;31.37;32.78;100421.50;5080477;28;20476;-71
2022/06/18 07:18:38;;;;;;;6.57;3.60;;;;;;;32.37;31.21;100430.25;5080951;28;20913;-70
2022/06/18 07:21:06;;;;;;;6.73;4.10;;;;;;;32.65;31.41;100437.94;5091268;28;20466;-70
2022/06/18 07:23:33;;;;;;;4.43;3.70;;;;;;;32.83;31.01;100441.16;5101526;28;20432;-71
2022/06/18 07:26:00;;;;;;;8.63;3.47;;;;;;;31.78;31.96;100437.25;5091773;28;20486;-70
2022/06/18 07:28:27;;;;;;;7.17;3.70;;;;;;;32.13;32.10;100435.56;5086890;28;20527;-71
2022/06/18 07:30:53;;;;;;;6.90;3.67;;;;;;;32.90;30.69;100427.81;5082362;28;20512;-69
2022/06/18 07:33:23;;;;;;;8.63;3.23;;;;;;;33.47;29.89;100425.53;5099466;28;20467;-73
2022/06/18 07:35:51;;;;;;;8.20;4.13;;;;;;;32.89;31.33;100428.94;5087510;28;20455;-70
2022/06/18 07:38:18;;;;;;;9.10;4.83;;;;;;;31.97;31.97;100429.22;5099824;28;20478;-70
2022/06/18 07:40:48;;;;;;;8.83;3.50;;;;;;;32.78;31.14;100414.31;5088344;28;20478;-72
2022/06/18 07:43:19;;;;;;;6.13;4.03;;;;;;;32.74;30.86;100423.47;5091512;28;20475;-67
2022/06/18 07:45:46;;;;;;;6.20;4.10;;;;;;;32.77;31.44;100415.41;5090316;28;20501;-74
2022/06/18 07:48:13;;;;;;;6.83;3.73;;;;;;;32.49;31.60;100422.44;5090331;28;20475;-73
2022/06/18 07:50:42;;;;;;;5.77;3.90;;;;;;;33.72;29.27;100421.72;5073173;28;20953;-72
2022/06/18 07:53:14;;;;;;;7.70;3.80;;;;;;;34.23;29.17;100416.78;5101238;28;20482;-72
2022/06/18 07:55:41;;;;;;;6.90;3.87;;;;;;;33.44;30.33;100417.78;5087850;28;20503;-73
2022/06/18 07:58:08;;;;;;;6.67;4.03;;;;;;;33.56;30.46;100411.88;5092365;28;20819;-73
2022/06/18 08:00:37;;;;;;;7.70;3.80;;;;;;;34.93;28.12;100405.09;5097335;28;20526;-72
2022/06/18 08:03:06;;;;;;;4.37;3.30;;;;;;;35.60;27.37;100404.03;5084622;28;20439;-71
2022/06/18 08:05:33;;;;;;;6.17;3.83;;;;;;;34.70;28.67;100403.97;5098403;28;20500;-68
2022/06/18 08:07:59;;;;;;;7.93;3.63;;;;;;;35.94;26.99;100403.72;5099897;28;20439;-70
2022/06/18 08:10:28;;;;;;;10.53;4.00;;;;;;;35.99;27.67;100406.38;5085304;28;20541;-69
2022/06/18 08:12:55;;;;;;;8.77;3.40;;;;;;;35.39;27.81;100403.56;5073289;28;20496;-70
2022/06/18 08:15:22;;;;;;;5.93;3.20;;;;;;;35.41;27.79;100404.06;5069899;28;20792;-70
2022/06/18 08:17:49;;;;;;;5.70;4.00;;;;;;;34.89;28.50;100407.63;5076571;28;20497;-69
2022/06/18 08:20:16;;;;;;;4.87;3.53;;;;;;;33.89;29.80;100406.59;5098632;28;20459;-69
2022/06/18 08:22:44;;;;;;;5.40;3.67;;;;;;;33.47;30.49;100396.97;5093703;28;20456;-72
2022/06/18 08:25:12;;;;;;;8.20;3.90;;;;;;;33.27;31.05;100409.06;5079048;28;20892;-71
2022/06/18 08:27:41;;;;;;;7.27;3.80;;;;;;;33.37;30.98;100404.25;5079237;28;20970;-72
2022/06/18 08:30:11;;;;;;;17.63;4.73;;;;;;;33.70;30.34;100410.09;5078506;28;20949;-72
2022/06/18 08:32:38;;;;;;;5.73;4.07;;;;;;;34.49;28.67;100412.56;5079261;28;20447;-72
2022/06/18 08:35:06;;;;;;;7.00;3.77;;;;;;;34.66;28.92;100416.81;5083654;28;20471;-73
2022/06/18 08:37:33;;;;;;;8.20;4.17;;;;;;;34.03;29.68;100409.50;5099485;28;20535;-72
2022/06/18 08:40:00;;;;;;;7.83;4.03;;;;;;;34.54;29.69;100408.91;5078411;28;20448;-71
2022/06/18 08:42:36;;;;;;;9.87;4.20;;;;;;;36.34;26.97;100414.38;5078566;28;21044;-73
2022/06/18 08:45:17;;;;;;;9.23;4.60;;;;;;;36.26;26.82;100415.91;5078994;28;20454;-74
2022/06/18 08:48:05;;;;;;;9.50;4.10;;;;;;;34.74;28.79;100424.50;5079088;28;20523;-72
2022/06/18 08:50:43;;;;;;;5.03;3.87;;;;;;;34.12;29.17;100411.31;5078719;28;20470;-72
2022/06/18 08:53:19;;;;;;;8.37;4.60;;;;;;;34.36;29.24;100412.47;5079496;28;20479;-73
2022/06/18 08:55:50;;;;;;;5.50;4.27;;;;;;;34.93;28.36;100395.91;5078816;28;20471;-70
2022/06/18 08:58:24;;;;;;;6.90;4.30;;;;;;;35.44;28.74;100404.28;5079325;28;20485;-69
2022/06/18 09:00:57;;;;;;;7.30;3.97;;;;;;;36.06;27.35;100419.91;5078111;28;20467;-71
2022/06/18 09:03:38;;;;;;;6.37;4.23;;;;;;;36.72;25.58;100416.94;5079531;28;20475;-72
2022/06/18 09:06:16;;;;;;;6.00;3.33;;;;;;;37.90;26.62;100407.66;5090881;28;20481;-71
2022/06/18 09:08:52;;;;;;;8.10;3.80;;;;;;;38.28;24.22;100401.59;5099277;28;20432;-71
2022/06/18 09:11:32;;;;;;;8.20;4.03;;;;;;;38.16;24.96;100405.84;5098460;28;20858;-72
2022/06/18 09:14:03;;;;;;;6.57;3.70;;;;;;;38.45;24.23;100398.03;5099478;28;20956;-73
2022/06/18 09:16:35;;;;;;;6.87;4.17;;;;;;;37.92;25.10;100403.41;5098473;27;20466;-72
2022/06/18 09:19:04;;;;;;;7.73;4.33;;;;;;;35.75;27.94;100408.53;5099621;28;20457;-70
2022/06/18 09:21:35;;;;;;;4.90;4.20;;;;;;;35.35;27.78;100400.56;5098969;27;20462;-72
2022/06/18 09:24:04;;;;;;;11.10;4.13;;;;;;;36.78;26.30;100398.13;5098745;28;20447;-72
2022/06/18 09:26:35;;;;;;;6.83;4.10;;;;;;;36.81;25.74;100406.69;5096240;28;20480;-70
2022/06/18 09:29:09;;;;;;;9.53;4.27;;;;;;;37.65;25.30;100394.06;5082547;28;20476;-73
2022/06/18 09:31:44;;;;;;;6.83;4.17;;;;;;;37.84;25.67;100399.44;5082333;28;20495;-71
2022/06/18 09:34:15;;;;;;;9.70;4.17;;;;;;;36.15;26.56;100409.69;5083378;28;20469;-72
2022/06/18 09:36:44;;;;;;;7.43;4.23;;;;;;;36.82;25.91;100411.13;5082620;28;20474;-70
2022/06/18 09:39:15;;;;;;;6.40;4.13;;;;;;;36.52;26.97;100409.81;5096609;28;20480;-72
2022/06/18 09:41:45;;;;;;;9.70;3.90;;;;;;;37.06;26.33;100405.25;5102055;28;20538;-72
2022/06/18 09:44:14;;;;;;;9.87;4.27;;;;;;;36.83;26.45;100414.75;5102916;28;20451;-72
2022/06/18 09:46:44;;;;;;;7.77;4.30;;;;;;;37.82;25.29;100404.50;5100954;28;20506;-70
2022/06/18 09:49:11;;;;;;;5.30;3.47;;;;;;;39.00;24.15;100414.25;5102988;28;20431;-70
2022/06/18 09:51:42;;;;;;;9.27;4.10;;;;;;;37.15;25.37;100410.09;5102019;28;20550;-72
2022/06/18 09:54:10;;;;;;;5.67;3.60;;;;;;;37.54;25.17;100412.22;5102255;28;20461;-71
2022/06/18 09:56:40;;;;;;;8.63;4.30;;;;;;;36.62;25.94;100403.22;5101071;28;20478;-71
2022/06/18 09:59:10;;;;;;;6.13;4.10;;;;;;;36.11;27.08;100405.88;5103302;28;20583;-72
2022/06/18 10:01:38;;;;;;;7.10;3.80;;;;;;;36.41;26.89;100400.03;5101761;28;21062;-71
2022/06/18 10:06:56;;;;;;;5.60;4.20;;;;;;;35.97;27.58;100403.09;5102299;28;20524;-71
2022/06/18 10:09:26;;;;;;;5.93;3.93;;;;;;;37.14;25.66;100412.06;5102455;28;20419;-73
2022/06/18 10:11:52;;;;;;;8.87;4.37;;;;;;;36.96;25.31;100408.28;5101885;28;20528;-72
2022/06/18 10:14:21;;;;;;;7.43;4.17;;;;;;;35.02;28.45;100396.91;5102259;28;20475;-72
2022/06/18 10:16:57;;;;;;;7.63;3.80;;;;;;;37.09;25.98;100382.34;5100805;28;20498;-71
2022/06/18 10:19:31;;;;;;;6.50;3.60;;;;;;;37.14;25.23;100386.97;5102415;28;20498;-72
2022/06/18 10:22:02;;;;;;;7.40;4.10;;;;;;;36.34;26.98;100392.91;5101702;28;20470;-72
2022/06/18 10:24:35;;;;;;;6.67;3.80;;;;;;;35.95;26.44;100397.00;5101511;28;20486;-71
2022/06/18 10:27:07;;;;;;;10.13;4.63;;;;;;;36.00;27.03;100385.75;5088374;28;20511;-71
2022/06/18 10:29:37;;;;;;;7.30;3.67;;;;;;;36.59;26.00;100387.94;5081879;28;20428;-72
2022/06/18 10:32:21;;;;;;;10.53;4.17;;;;;;;38.35;24.42;100382.41;5081405;28;20503;-72
2022/06/18 10:35:02;;;;;;;9.50;4.20;;;;;;;37.71;24.55;100375.25;5081987;28;20501;-73
2022/06/18 10:37:35;;;;;;;10.30;4.10;;;;;;;37.19;25.90;100389.66;5080916;28;20474;-72
2022/06/18 10:40:08;;;;;;;9.57;4.27;;;;;;;38.00;23.35;100388.69;5097421;28;20436;-72
2022/06/18 10:42:46;;;;;;;12.47;4.20;;;;;;;36.61;26.14;100380.06;5080804;28;21067;-72
2022/06/18 10:45:18;;;;;;;9.67;4.10;;;;;;;36.27;26.71;100386.94;5079377;28;20452;-71
2022/06/18 10:47:47;;;;;;;7.10;4.27;;;;;;;36.47;25.80;100376.50;5081933;28;20468;-71
2022/06/18 10:50:17;;;;;;;6.20;4.40;;;;;;;35.54;26.55;100372.69;5081094;28;20447;-71
2022/06/18 10:52:45;;;;;;;10.73;4.43;;;;;;;35.81;27.03;100368.34;5081149;28;20512;-72
2022/06/18 10:55:17;;;;;;;5.63;4.30;;;;;;;35.57;26.87;100371.25;5081202;28;20443;-70
2022/06/18 10:57:44;;;;;;;7.73;4.00;;;;;;;35.76;26.76;100374.00;5099779;28;20478;-70
2022/06/18 11:00:14;;;;;;;8.67;4.50;;;;;;;36.21;25.53;100376.22;5100416;28;20481;-71
2022/06/18 11:02:41;;;;;;;9.23;5.20;;;;;;;36.51;25.77;100364.44;5101608;28;20493;-69
2022/06/18 11:05:19;;;;;;;10.73;3.87;;;;;;;37.45;24.27;100366.72;5101272;28;20447;-72
2022/06/18 11:07:50;;;;;;;13.67;4.60;;;;;;;36.16;26.16;100375.16;5101379;28;20558;-72
2022/06/18 11:10:31;;;;;;;7.53;4.33;;;;;;;37.25;24.74;100363.28;5101110;28;20439;-70
2022/06/18 11:13:00;;;;;;;7.00;4.33;;;;;;;36.92;25.84;100362.69;5101568;28;20451;-72
2022/06/18 11:15:31;;;;;;;8.93;4.00;;;;;;;37.46;24.22;100358.00;5099544;28;20467;-72
2022/06/18 11:17:58;;;;;;;7.80;4.53;;;;;;;37.49;24.64;100348.19;5101259;28;20557;-72
2022/06/18 11:20:29;;;;;;;6.77;4.00;;;;;;;37.33;24.72;100358.09;5100606;28;20434;-72
2022/06/18 11:22:57;;;;;;;9.83;4.30;;;;;;;36.48;25.41;100356.69;5100194;28;20446;-71
2022/06/18 11:25:32;;;;;;;6.20;3.70;;;;;;;36.22;26.17;100366.75;5085717;28;20470;-72
2022/06/18 11:28:02;;;;;;;7.00;4.23;;;;;;;35.70;26.74;100353.78;5080526;28;20495;-72
2022/06/18 11:30:32;;;;;;;11.53;4.30;;;;;;;36.58;24.80;100366.81;5079856;28;20494;-72
2022/06/18 11:33:00;;;;;;;9.50;4.80;;;;;;;37.34;24.26;100354.97;5080538;28;20483;-72
2022/06/18 11:35:31;;;;;;;12.00;4.17;;;;;;;37.09;24.68;100354.47;5080303;28;20476;-69
2022/06/18 11:38:00;;;;;;;10.20;4.53;;;;;;;35.68;26.05;100346.88;5083395;28;20475;-70
2022/06/18 11:40:27;;;;;;;6.90;3.87;;;;;;;36.53;26.76;100356.59;5099650;28;20462;-71
2022/06/18 11:42:57;;;;;;;4.83;3.83;;;;;;;36.69;25.56;100354.31;5099789;28;20475;-72
2022/06/18 11:45:40;;;;;;;6.00;4.17;;;;;;;37.56;24.76;100345.75;5098617;28;20997;-71